Map

Track Data

SID SEASON NUMBER BASIN SUBBASIN NAME ISO_TIME NATURE LAT LON WMO_WIND WMO_PRES WMO_AGENCY TRACK_TYPE DIST2LAND LANDFALL IFLAG USA_AGENCY USA_ATCF_ID USA_LAT USA_LON USA_RECORD USA_STATUS USA_WIND USA_PRES USA_SSHS USA_R34_NE USA_R34_SE USA_R34_SW USA_R34_NW USA_R50_NE USA_R50_SE USA_R50_SW USA_R50_NW USA_R64_NE USA_R64_SE USA_R64_SW USA_R64_NW USA_POCI USA_ROCI USA_RMW USA_EYE TOKYO_LAT TOKYO_LON TOKYO_GRADE TOKYO_WIND TOKYO_PRES TOKYO_R50_DIR TOKYO_R50_LONG TOKYO_R50_SHORT TOKYO_R30_DIR TOKYO_R30_LONG TOKYO_R30_SHORT TOKYO_LAND CMA_LAT CMA_LON CMA_CAT CMA_WIND CMA_PRES HKO_LAT HKO_LON HKO_CAT HKO_WIND HKO_PRES NEWDELHI_LAT NEWDELHI_LON NEWDELHI_GRADE NEWDELHI_WIND NEWDELHI_PRES NEWDELHI_CI NEWDELHI_DP NEWDELHI_POCI REUNION_LAT REUNION_LON REUNION_TYPE REUNION_WIND REUNION_PRES REUNION_TNUM REUNION_CI REUNION_RMW REUNION_R34_NE REUNION_R34_SE REUNION_R34_SW REUNION_R34_NW REUNION_R50_NE REUNION_R50_SE REUNION_R50_SW REUNION_R50_NW REUNION_R64_NE REUNION_R64_SE REUNION_R64_SW REUNION_R64_NW BOM_LAT BOM_LON BOM_TYPE BOM_WIND BOM_PRES BOM_TNUM BOM_CI BOM_RMW BOM_R34_NE BOM_R34_SE BOM_R34_SW BOM_R34_NW BOM_R50_NE BOM_R50_SE BOM_R50_SW BOM_R50_NW BOM_R64_NE BOM_R64_SE BOM_R64_SW BOM_R64_NW BOM_ROCI BOM_POCI BOM_EYE BOM_POS_METHOD BOM_PRES_METHOD NADI_LAT NADI_LON NADI_CAT NADI_WIND NADI_PRES WELLINGTON_LAT WELLINGTON_LON WELLINGTON_WIND WELLINGTON_PRES DS824_LAT DS824_LON DS824_STAGE DS824_WIND DS824_PRES TD9636_LAT TD9636_LON TD9636_STAGE TD9636_WIND TD9636_PRES TD9635_LAT TD9635_LON TD9635_WIND TD9635_PRES TD9635_ROCI NEUMANN_LAT NEUMANN_LON NEUMANN_CLASS NEUMANN_WIND NEUMANN_PRES MLC_LAT MLC_LON MLC_CLASS MLC_WIND MLC_PRES USA_GUST BOM_GUST BOM_GUST_PER REUNION_GUST REUNION_GUST_PER USA_SEAHGT USA_SEARAD_NE USA_SEARAD_SE USA_SEARAD_SW USA_SEARAD_NW STORM_SPEED STORM_DIR
1972219N15240 1972 68 EP MM CELESTE 1972-08-06 00:00:00 TS 15.2000 -119.800 35 hurdat_epa main 1332 1332 O________OO___ hurdat_epa EP031972 15.2000 -119.800 TS 35 0 15.2000 -119.800 TC 35 15.2000 -119.800 2 2 243
1972219N15240 1972 68 EP MM CELESTE 1972-08-06 03:00:00 TS 15.1494 -119.899 main 1347 1347 P________PP___ EP031972 15.1500 -119.898 TS 35 0 15.1500 -119.898 TC 35 15.1469 -119.906 2 2 243
1972219N15240 1972 68 EP MM CELESTE 1972-08-06 06:00:00 TS 15.0990 -120.002 35 hurdat_epa main 1353 1353 O________OP___ hurdat_epa EP031972 15.1000 -120.000 TS 35 0 15.1000 -120.000 TC 35 15.0951 -120.010 2 2 243
1972219N15240 1972 68 EP MM CELESTE 1972-08-06 09:00:00 TS 15.0491 -120.108 main 1369 1369 P________PP___ EP031972 15.0500 -120.108 TS 35 0 15.0500 -120.108 TC 35 15.0457 -120.109 2 2 242
1972219N15240 1972 68 EP MM CELESTE 1972-08-06 12:00:00 TS 15.0000 -120.200 35 hurdat_epa main 1375 1375 O________OO___ hurdat_epa EP031972 15.0000 -120.200 TS 35 0 15.0000 -120.200 TC 35 15.0000 -120.200 2 2 237
1972219N15240 1972 68 EP MM CELESTE 1972-08-06 15:00:00 TS 14.9573 -120.256 main 1381 1381 P________PP___ EP031972 14.9575 -120.250 TS 35 0 14.9575 -120.250 TC 35 14.9565 -120.282 2 1 226
1972219N15240 1972 68 EP MM CELESTE 1972-08-06 18:00:00 TS 14.9005 -120.311 35 hurdat_epa main 1390 1390 O________OP___ hurdat_epa EP031972 14.9000 -120.300 TS 35 0 14.9000 -120.300 TC 35 14.9025 -120.357 2 2 226
1972219N15240 1972 68 EP MM CELESTE 1972-08-06 21:00:00 TS 14.8224 -120.400 main 1406 1406 P________PP___ EP031972 14.8225 -120.392 TS 35 0 14.8225 -120.392 TC 35 14.8222 -120.429 2 3 222
1972219N15240 1972 68 EP MM CELESTE 1972-08-07 00:00:00 TS 14.7000 -120.500 35 hurdat_epa main 1421 1421 O________OO___ hurdat_epa EP031972 14.7000 -120.500 TS 35 0 14.7000 -120.500 TC 35 14.7000 -120.500 2 4 214
1972219N15240 1972 68 EP MM CELESTE 1972-08-07 03:00:00 TS 14.5184 -120.607 main 1446 1446 P________PP___ EP031972 14.5225 -120.608 TS 35 0 14.5225 -120.608 TC 35 14.5019 -120.604 2 5 206
1972219N15240 1972 68 EP MM CELESTE 1972-08-07 06:00:00 TS 14.2930 -120.701 35 hurdat_epa main 1470 1470 O________OP___ hurdat_epa EP031972 14.3000 -120.700 TS 35 0 14.3000 -120.700 TC 35 14.2650 -120.703 2 5 200
1972219N15240 1972 68 EP MM CELESTE 1972-08-07 09:00:00 TS 14.0381 -120.785 main 1504 1504 P________PP___ EP031972 14.0425 -120.788 TS 35 0 14.0425 -120.788 TC 35 14.0206 -120.776 2 5 191
1972219N15240 1972 68 EP MM CELESTE 1972-08-07 12:00:00 TS 13.8000 -120.800 35 hurdat_epa main 1522 1522 O________OO___ hurdat_epa EP031972 13.8000 -120.800 TS 35 0 13.8000 -120.800 TC 35 13.8000 -120.800 2 4 164
1972219N15240 1972 68 EP MM CELESTE 1972-08-07 15:00:00 TS 13.6207 -120.658 main 1534 1527 P________PP___ EP031972 13.6275 -120.665 TS 35 0 13.6275 -120.665 TC 35 13.5931 -120.632 2 4 136
1972219N15240 1972 68 EP MM CELESTE 1972-08-07 18:00:00 TS 13.4844 -120.487 35 hurdat_epa main 1527 1519 O________OP___ hurdat_epa EP031972 13.5000 -120.500 TS 35 0 13.5000 -120.500 TC 35 13.4218 -120.435 2 4 130
1972219N15240 1972 68 EP MM CELESTE 1972-08-07 21:00:00 TS 13.3467 -120.328 main 1528 1528 P________PP___ EP031972 13.3547 -120.330 TS 35 0 13.3547 -120.330 TC 35 13.3145 -120.320 2 2 154
1972219N15240 1972 68 EP MM CELESTE 1972-08-08 00:00:00 TS 13.3000 -120.400 35 hurdat_epa main 1535 1535 O________OO___ hurdat_epa EP031972 13.3000 -120.400 TS 35 0 13.3000 -120.400 TC 35 13.3000 -120.400 2 6 276
1972219N15240 1972 68 EP MM CELESTE 1972-08-08 03:00:00 TS 13.4039 -120.931 main 1565 1565 P________PP___ EP031972 13.3979 -120.952 TS 35 0 13.3979 -120.952 TC 35 13.4282 -120.844 2 13 284
1972219N15240 1972 68 EP MM CELESTE 1972-08-08 06:00:00 TS 13.6084 -121.657 35 hurdat_epa main 1598 1595 O________OP___ hurdat_epa EP031972 13.6000 -121.700 TS 35 0 13.6000 -121.700 TC 35 13.6420 -121.483 2 14 289
1972219N15240 1972 68 EP MM CELESTE 1972-08-08 09:00:00 TS 13.8629 -122.305 main 1612 1612 P________PP___ EP031972 13.8574 -122.330 TS 35 0 13.8574 -122.330 TC 35 13.8846 -122.206 2 13 292
1972219N15240 1972 68 EP MM CELESTE 1972-08-08 12:00:00 TS 14.1000 -122.900 35 hurdat_epa main 1638 1638 O________OO___ hurdat_epa EP031972 14.1000 -122.900 TS 35 0 14.1000 -122.900 TC 35 14.1000 -122.900 2 11 289
1972219N15240 1972 68 EP MM CELESTE 1972-08-08 15:00:00 TS 14.2274 -123.373 main 1666 1665 P________PP___ EP031972 14.2298 -123.373 TS 35 0 14.2298 -123.373 TC 35 14.2179 -123.376 2 9 283
1972219N15240 1972 68 EP MM CELESTE 1972-08-08 18:00:00 TS 14.3002 -123.802 35 hurdat_epa main 1688 1688 O________OP___ hurdat_epa EP031972 14.3000 -123.800 TS 35 0 14.3000 -123.800 TC 35 14.3009 -123.808 2 8 279
1972219N15240 1972 68 EP MM CELESTE 1972-08-08 21:00:00 TS 14.3575 -124.229 main 1710 1710 P________PP___ EP031972 14.3573 -124.228 TS 35 0 14.3573 -124.228 TC 35 14.3585 -124.236 2 9 277
1972219N15240 1972 68 EP MM CELESTE 1972-08-09 00:00:00 TS 14.4000 -124.700 35 hurdat_epa main 1749 1749 O________OO___ hurdat_epa EP031972 14.4000 -124.700 TS 35 0 14.4000 -124.700 TC 35 14.4000 -124.700 2 10 275
1972219N15240 1972 68 EP MM CELESTE 1972-08-09 03:00:00 TS 14.4530 -125.272 main 1789 1789 P________PP___ EP031972 14.4575 -125.277 TS 35 0 14.4575 -125.277 TC 35 14.4352 -125.249 2 12 275
1972219N15240 1972 68 EP MM CELESTE 1972-08-09 06:00:00 TS 14.4915 -125.888 35 hurdat_epa main 1837 1837 O________OP___ hurdat_epa EP031972 14.5000 -125.900 TS 35 0 14.5000 -125.900 TC 35 14.4573 -125.840 2 12 272
1972219N15240 1972 68 EP MM CELESTE 1972-08-09 09:00:00 TS 14.4950 -126.486 main 1886 1886 P________PP___ EP031972 14.4998 -126.493 TS 35 0 14.4998 -126.493 TC 35 14.4757 -126.462 2 12 270
1972219N15240 1972 68 EP MM CELESTE 1972-08-09 12:00:00 TS 14.5000 -127.100 35 hurdat_epa main 1934 1934 O________OO___ hurdat_epa EP031972 14.5000 -127.100 TS 35 0 14.5000 -127.100 TC 35 14.5000 -127.100 2 12 272
1972219N15240 1972 68 EP MM CELESTE 1972-08-09 15:00:00 TS 14.5374 -127.733 main 1975 1975 P________PP___ EP031972 14.5424 -127.742 TS 47 0 14.5424 -127.742 TC 47 14.5172 -127.696 2 12 274
1972219N15240 1972 68 EP MM CELESTE 1972-08-09 18:00:00 TS 14.5891 -128.382 60 hurdat_epa main 2015 2015 O________OP___ hurdat_epa EP031972 14.6000 -128.400 TS 60 0 14.6000 -128.400 TC 60 14.5456 -128.311 2 12 274
1972219N15240 1972 68 EP MM CELESTE 1972-08-09 21:00:00 TS 14.6218 -129.005 main 2058 2058 P________PP___ EP031972 14.6270 -129.013 TS 60 0 14.6270 -129.013 TC 60 14.6013 -128.971 2 13 275
1972219N15240 1972 68 EP MM CELESTE 1972-08-10 00:00:00 TS 14.7000 -129.700 60 hurdat_epa main 2101 2101 O________OO___ hurdat_epa EP031972 14.7000 -129.700 TS 60 0 14.7000 -129.700 TC 60 14.7000 -129.700 2 15 280
1972219N15240 1972 68 EP MM CELESTE 1972-08-10 03:00:00 TS 14.8778 -130.569 main 2154 2154 P________PP___ EP031972 14.8775 -130.562 TS 60 0 14.8775 -130.562 TC 60 14.8790 -130.596 2 18 283
1972219N15240 1972 68 EP MM CELESTE 1972-08-10 06:00:00 TS 15.0990 -131.510 60 hurdat_epa main 2209 2209 O________OP___ hurdat_epa EP031972 15.1000 -131.500 TS 60 0 15.1000 -131.500 TC 60 15.0952 -131.550 2 19 283
1972219N15240 1972 68 EP MM CELESTE 1972-08-10 09:00:00 TS 15.3149 -132.470 main 2275 2275 P________PP___ EP031972 15.3153 -132.467 TS 60 0 15.3153 -132.467 TC 60 15.3135 -132.480 2 18 283
1972219N15240 1972 68 EP MM CELESTE 1972-08-10 12:00:00 TS 15.5000 -133.300 60 hurdat_epa main 2322 2267 O________OO___ hurdat_epa EP031972 15.5000 -133.300 TS 60 0 15.5000 -133.300 TC 60 15.5000 -133.300 2 13 283
1972219N15240 1972 68 EP MM CELESTE 1972-08-10 15:00:00 TS 15.6248 -133.824 main 2267 2223 P________PP___ EP031972 15.6218 -133.810 TS 65 1 15.6218 -133.810 TC 65 15.6370 -133.881 2 9 283
1972219N15240 1972 68 EP MM CELESTE 1972-08-10 18:00:00 TS 15.7074 -134.230 70 hurdat_epa main 2223 2168 O________OP___ hurdat_epa EP031972 15.7000 -134.200 HU 70 1 15.7000 -134.200 TC 70 15.7370 -134.348 2 9 280
1972219N15240 1972 68 EP MM CELESTE 1972-08-10 21:00:00 TS 15.7766 -134.695 main 2168 2116 P________PP___ EP031972 15.7723 -134.677 HU 70 1 15.7723 -134.677 TC 70 15.7936 -134.765 2 9 276
1972219N15240 1972 68 EP MM CELESTE 1972-08-11 00:00:00 TS 15.8000 -135.200 70 hurdat_epa main 2116 2054 O________OO___ hurdat_epa EP031972 15.8000 -135.200 HU 70 1 15.8000 -135.200 TC 70 15.8000 -135.200 3 11 270
1972219N15240 1972 68 EP MM CELESTE 1972-08-11 03:00:00 TS 15.7774 -135.790 main 2054 1995 P________PP___ EP031972 15.7800 -135.792 HU 70 1 15.7800 -135.792 TC 70 15.7670 -135.779 3 12 265
1972219N15240 1972 68 EP MM CELESTE 1972-08-11 06:00:00 TS 15.6966 -136.396 70 hurdat_epa main 1995 1946 O________OP___ hurdat_epa EP031972 15.7000 -136.400 HU 70 1 15.7000 -136.400 TC 70 15.6832 -136.380 3 12 260
1972219N15240 1972 68 EP MM CELESTE 1972-08-11 09:00:00 TS 15.5695 -136.977 main 1936 1890 P________PP___ EP031972 15.5725 -136.980 HU 72 1 15.5725 -136.980 TC 72 15.5576 -136.967 3 11 254
1972219N15240 1972 68 EP MM CELESTE 1972-08-11 12:00:00 TS 15.4000 -137.500 75 hurdat_epa main 1890 1856 O________OO___ hurdat_epa EP031972 15.4000 -137.500 HU 75 1 15.4000 -137.500 TC 75 15.4000 -137.500 4 10 249
1972219N15240 1972 68 EP MM CELESTE 1972-08-11 15:00:00 TS 15.2115 -137.931 main 1856 1822 P________PP___ EP031972 15.2073 -137.930 HU 75 1 15.2073 -137.930 TC 75 15.2280 -137.936 4 9 243
1972219N15240 1972 68 EP MM CELESTE 1972-08-11 18:00:00 TS 15.0058 -138.303 75 hurdat_epa main 1822 1795 O________OP___ hurdat_epa EP031972 15.0000 -138.300 HU 75 1 15.0000 -138.300 TC 75 15.0291 -138.317 4 8 240
1972219N15240 1972 68 EP MM CELESTE 1972-08-11 21:00:00 TS 14.8031 -138.659 main 1788 1766 P________PP___ EP031972 14.7999 -138.657 HU 77 1 14.7999 -138.657 TC 77 14.8157 -138.665 4 8 239
1972219N15240 1972 68 EP MM CELESTE 1972-08-12 00:00:00 TS 14.6000 -139.000 80 hurdat_epa main 1766 1743 O________OO___ hurdat_epa EP031972 14.6000 -139.000 HU 80 1 14.6000 -139.000 TC 80 14.6000 -139.000 4 8 238
1972219N15240 1972 68 EP MM CELESTE 1972-08-12 03:00:00 TS 14.3958 -139.345 main 1743 1712 P________PP___ EP031972 14.3999 -139.350 HU 80 1 14.3999 -139.350 TC 80 14.3791 -139.325 4 7 240
1972219N15240 1972 68 EP MM CELESTE 1972-08-12 06:00:00 TS 14.2308 -139.671 80 hurdat_epa main 1712 1686 O________OP___ hurdat_epa EP031972 14.2000 -139.700 HU 80 1 14.2000 -139.700 TC 80 14.1616 -139.647 4 7 242
1972219N15240 1972 68 EP CP CELESTE 1972-08-12 09:00:00 TS 14.0517 -140.005 main 1686 1656 P________PP___ EP031972 13.9848 -140.027 HU 82 1 13.9848 -140.027 TC 82 13.9634 -139.997 4 8 244
1972219N15240 1972 68 EP CP CELESTE 1972-08-12 12:00:00 TS 13.8913 -140.400 85 hurdat_epa main 1656 1611 O________OO___ hurdat_epa EP031972 13.8000 -140.400 HU 85 2 13.8000 -140.400 TC 85 13.8000 -140.400 4 9 252
1972219N15240 1972 68 EP CP CELESTE 1972-08-12 15:00:00 TS 13.7671 -140.886 main 1611 1567 P________PP___ EP031972 13.6774 -140.862 HU 85 2 13.6774 -140.862 TC 85 13.6931 -140.880 4 10 257
1972219N15240 1972 68 EP CP CELESTE 1972-08-12 18:00:00 TS 13.6533 -141.436 85 hurdat_epa main 1567 1515 O________OP___ hurdat_epa EP031972 13.6000 -141.400 HU 85 2 13.6000 -141.400 TC 85 13.6199 -141.417 4 11 260
1972219N15240 1972 68 EP CP CELESTE 1972-08-12 21:00:00 TS 13.5660 -142.025 main 1515 1463 P________PP___ EP031972 13.5499 -141.977 HU 85 2 13.5499 -141.977 TC 85 13.5617 -141.996 4 12 262
1972219N15240 1972 68 EP CP CELESTE 1972-08-13 00:00:00 TS 13.4833 -142.650 85 hurdat_epa main 1453 1403 O________OO___ hurdat_epa EP031972 13.5000 -142.600 HU 85 2 13.5000 -142.600 TC 85 13.5000 -142.600 4 12 261
1972219N15240 1972 68 EP CP CELESTE 1972-08-13 03:00:00 TS 13.3676 -143.291 main 1403 1353 P________PP___ EP031972 13.4074 -143.250 HU 87 2 13.4074 -143.250 TC 87 13.3909 -143.212 4 13 259
1972219N15240 1972 68 EP CP CELESTE 1972-08-13 06:00:00 TS 13.2462 -143.940 90 hurdat_epa main 1359 1311 O________OP___ hurdat_epa EP031972 13.3000 -143.900 HU 90 2 13.3000 -143.900 TC 90 13.2774 -143.843 4 13 259
1972219N15240 1972 68 EP CP CELESTE 1972-08-13 09:00:00 TS 13.1237 -144.581 main 1302 1256 P________PP___ EP031972 13.1849 -144.515 HU 90 2 13.1849 -144.515 TC 90 13.1752 -144.478 4 12 260
1972219N15240 1972 68 EP CP CELESTE 1972-08-13 12:00:00 TS 13.0333 -145.200 90 hurdat_epa main 1256 1213 O________OO___ hurdat_epa EP031972 13.1000 -145.100 HU 90 2 13.1000 -145.100 TC 90 13.1000 -145.100 4 12 264
1972219N15240 1972 68 EP CP CELESTE 1972-08-13 15:00:00 TS 13.0082 -145.777 main 1204 1162 P________PP___ EP031972 13.0848 -145.650 HU 90 2 13.0848 -145.650 TC 90 13.0827 -145.677 4 11 269
1972219N15240 1972 68 EP CP CELESTE 1972-08-13 18:00:00 TS 13.0152 -146.340 90 hurdat_epa main 1162 1113 O________OP___ hurdat_epa EP031972 13.1000 -146.200 HU 90 2 13.1000 -146.200 TC 90 13.0915 -146.242 4 11 271
1972219N15240 1972 68 EP CP CELESTE 1972-08-13 21:00:00 TS 13.0223 -146.911 main 1113 1065 P________PP___ EP031972 13.1074 -146.785 HU 92 2 13.1074 -146.785 TC 92 13.1046 -146.811 4 11 270
1972219N15240 1972 68 EP CP CELESTE 1972-08-14 00:00:00 TS 13.0167 -147.500 95 hurdat_epa main 1065 1019 O________OO___ hurdat_epa EP031972 13.1000 -147.400 HU 95 2 13.1000 -147.400 TC 95 13.1000 -147.400 4 12 268
1972219N15240 1972 68 EP CP CELESTE 1972-08-14 03:00:00 TS 12.9753 -148.124 main 1019 982 P________PP___ EP031972 13.0649 -148.042 HU 105 3 13.0649 -148.042 TC 105 13.0424 -148.037 4 12 265
1972219N15240 1972 68 EP CP CELESTE 1972-08-14 06:00:00 TS 12.9108 -148.765 115 hurdat_epa main 975 941 O________OP___ hurdat_epa EP031972 13.0000 -148.700 HU 115 4 13.0000 -148.700 TC 115 12.9649 -148.693 4 13 263
1972219N15240 1972 68 EP CP CELESTE 1972-08-14 09:00:00 TS 12.8299 -149.413 main 941 902 P________PP___ EP031972 12.8999 -149.358 HU 115 4 12.8999 -149.358 TC 115 12.8799 -149.352 4 13 263
1972219N15240 1972 68 EP CP CELESTE 1972-08-14 12:00:00 TS 12.7500 -150.050 115 944 hurdat_epa main 896 875 O________OO___ hurdat_epa EP031972 12.8000 -150.000 HU 115 944 4 12.8000 -150.000 TC 115 944 12.8000 -150.000 4 12 263
1972219N15240 1972 68 EP CP CELESTE 1972-08-14 15:00:00 TS 12.6902 -150.656 main 869 848 P________PP___ EP031972 12.7423 -150.607 HU 107 942 3 12.7423 -150.607 TC 107 942 12.7298 -150.598 4 12 265
1972219N15240 1972 68 EP CP CELESTE 1972-08-14 18:00:00 TS 12.6448 -151.248 100 940 hurdat_epa main 852 819 O________OP___ hurdat_epa EP031972 12.7000 -151.200 HU 100 940 3 12.7000 -151.200 TC 100 940 12.6688 -151.185 4 11 266
1972219N15240 1972 68 EP CP CELESTE 1972-08-14 21:00:00 TS 12.6046 -151.828 main 819 788 P________PP___ EP031972 12.6423 -151.785 HU 100 940 3 12.6423 -151.785 TC 100 940 12.6235 -151.780 4 12 267
1972219N15240 1972 68 EP CP CELESTE 1972-08-15 00:00:00 TS 12.5833 -152.433 100 940 hurdat_epa main 788 758 O________OO___ hurdat_epa EP031972 12.6000 -152.400 HU 100 940 3 12.6000 -152.400 TC 100 940 12.6000 -152.400 4 12 269
1972219N15240 1972 68 EP CP CELESTE 1972-08-15 03:00:00 TS 12.5776 -153.106 main 758 733 P________PP___ EP031972 12.5849 -153.085 HU 100 940 3 12.5849 -153.085 TC 100 940 12.5834 -153.096 4 13 271
1972219N15240 1972 68 EP CP CELESTE 1972-08-15 06:00:00 TS 12.5984 -153.803 100 940 hurdat_epa main 733 716 O________OP___ hurdat_epa EP031972 12.6000 -153.800 HU 100 940 3 12.6000 -153.800 TC 100 940 12.5904 -153.815 4 14 273
1972219N15240 1972 68 EP CP CELESTE 1972-08-15 09:00:00 TS 12.6370 -154.492 main 716 696 P________PP___ EP031972 12.6274 -154.515 HU 100 940 3 12.6274 -154.515 TC 100 940 12.6271 -154.527 4 13 275
1972219N15240 1972 68 EP CP CELESTE 1972-08-15 12:00:00 TS 12.7167 -155.150 100 940 hurdat_epa main 696 682 O________OO___ hurdat_epa EP031972 12.7000 -155.200 HU 100 940 3 12.7000 -155.200 TC 100 940 12.7000 -155.200 4 13 280
1972219N15240 1972 68 EP CP CELESTE 1972-08-15 15:00:00 TS 12.8513 -155.761 main 671 661 P________PP___ EP031972 12.8349 -155.830 HU 100 3 12.8349 -155.830 TC 100 12.8258 -155.825 4 12 285
1972219N15240 1972 68 EP CP CELESTE 1972-08-15 18:00:00 TS 13.0141 -156.317 100 hurdat_epa main 663 646 O________OP___ hurdat_epa EP031972 13.0000 -156.400 HU 100 3 13.0000 -156.400 TC 100 12.9846 -156.404 4 11 287
1972219N15240 1972 68 EP CP CELESTE 1972-08-15 21:00:00 TS 13.1768 -156.830 main 648 644 P________PP___ EP031972 13.1649 -156.937 HU 95 2 13.1649 -156.937 TC 95 13.1510 -156.931 4 10 288
1972219N15240 1972 68 EP CP CELESTE 1972-08-16 00:00:00 TS 13.3167 -157.283 90 hurdat_epa main 649 641 O________OO___ hurdat_epa EP031972 13.3000 -157.400 HU 90 2 13.3000 -157.400 TC 90 13.3000 -157.400 4 9 285
1972219N15240 1972 68 EP CP CELESTE 1972-08-16 03:00:00 TS 13.3932 -157.678 main 651 651 P________PP___ EP031972 13.3573 -157.773 HU 90 2 13.3573 -157.773 TC 90 13.3796 -157.800 4 8 281
1972219N15240 1972 68 EP CP CELESTE 1972-08-16 06:00:00 TS 13.4569 -158.041 90 hurdat_epa main 652 652 O________OP___ hurdat_epa EP031972 13.4000 -158.100 HU 90 2 13.4000 -158.100 TC 90 13.4416 -158.146 4 7 282
1972219N15240 1972 68 EP CP CELESTE 1972-08-16 09:00:00 TS 13.5496 -158.416 main 669 659 P________PP___ EP031972 13.4849 -158.443 HU 90 2 13.4849 -158.443 TC 90 13.5078 -158.469 4 8 286
1972219N15240 1972 68 EP CP CELESTE 1972-08-16 12:00:00 TS 13.6667 -158.800 90 hurdat_epa main 669 669 O________OO___ hurdat_epa EP031972 13.6000 -158.800 HU 90 2 13.6000 -158.800 TC 90 13.6000 -158.800 4 8 289
1972219N15240 1972 68 EP CP CELESTE 1972-08-16 15:00:00 TS 13.8086 -159.205 main 682 678 P________PP___ EP031972 13.7350 -159.193 HU 90 2 13.7350 -159.193 TC 90 13.7542 -159.177 4 8 291
1972219N15240 1972 68 EP CP CELESTE 1972-08-16 18:00:00 TS 13.9725 -159.612 90 960 hurdat_epa main 688 688 O________OP___ hurdat_epa EP031972 13.9000 -159.600 HU 90 960 2 13.9000 -159.600 TC 90 960 13.9347 -159.570 4 8 294
1972219N15240 1972 68 EP CP CELESTE 1972-08-16 21:00:00 TS 14.1550 -160.001 main 697 697 P________PP___ EP031972 14.0999 -159.993 HU 87 2 14.0999 -159.993 TC 87 14.1229 -159.977 4 8 295
1972219N15240 1972 68 EP CP CELESTE 1972-08-17 00:00:00 TS 14.3333 -160.400 85 hurdat_epa main 718 710 O________OO___ hurdat_epa EP031972 14.3000 -160.400 HU 85 2 14.3000 -160.400 TC 85 14.3000 -160.400 4 9 292
1972219N15240 1972 68 EP CP CELESTE 1972-08-17 03:00:00 TS 14.4813 -160.834 main 732 732 P________PP___ EP031972 14.4650 -160.843 HU 85 2 14.4650 -160.843 TC 85 14.4353 -160.844 4 9 288
1972219N15240 1972 68 EP CP CELESTE 1972-08-17 06:00:00 TS 14.6096 -161.283 85 hurdat_epa main 764 764 O________OP___ hurdat_epa EP031972 14.6000 -161.300 HU 85 2 14.6000 -161.300 TC 85 14.5575 -161.300 4 9 286
1972219N15240 1972 68 EP CP CELESTE 1972-08-17 09:00:00 TS 14.7234 -161.731 main 789 789 P________PP___ EP031972 14.7000 -161.758 HU 85 2 14.7000 -161.758 TC 85 14.6759 -161.757 4 9 285
1972219N15240 1972 68 EP CP CELESTE 1972-08-17 12:00:00 TS 14.8333 -162.167 85 hurdat_epa main 824 818 O________OO___ hurdat_epa EP031972 14.8000 -162.200 HU 85 2 14.8000 -162.200 TC 85 14.8000 -162.200 4 8 286
1972219N15240 1972 68 EP CP CELESTE 1972-08-17 15:00:00 TS 14.9558 -162.571 main 836 836 P________PP___ EP031972 14.9424 -162.608 HU 85 2 14.9424 -162.608 TC 85 14.9503 -162.594 4 8 288
1972219N15240 1972 68 EP CP CELESTE 1972-08-17 18:00:00 TS 15.0844 -162.963 85 hurdat_epa main 842 840 O________OP___ hurdat_epa EP031972 15.1000 -163.000 HU 85 2 15.1000 -163.000 TC 85 15.1066 -162.978 4 8 289
1972219N15240 1972 68 EP CP CELESTE 1972-08-17 21:00:00 TS 15.2206 -163.351 main 849 839 P________PP___ EP031972 15.2573 -163.385 HU 85 2 15.2573 -163.385 TC 85 15.2596 -163.372 4 8 289
1972219N15240 1972 68 EP CP CELESTE 1972-08-18 00:00:00 TS 15.3500 -163.767 85 hurdat_epa main 849 849 O________OO___ hurdat_epa EP031972 15.4000 -163.800 HU 85 2 15.4000 -163.800 TC 85 15.4000 -163.800 4 9 285
1972219N15240 1972 68 EP CP CELESTE 1972-08-18 03:00:00 TS 15.4580 -164.242 main 862 862 P________PP___ EP031972 15.5074 -164.278 HU 85 2 15.5074 -164.278 TC 85 15.5186 -164.297 4 10 282
1972219N15240 1972 68 EP CP CELESTE 1972-08-18 06:00:00 TS 15.5538 -164.755 85 hurdat_epa main 888 888 O________OP___ hurdat_epa EP031972 15.6000 -164.800 HU 85 2 15.6000 -164.800 TC 85 15.6227 -164.828 4 10 281
1972219N15240 1972 68 EP CP CELESTE 1972-08-18 09:00:00 TS 15.6505 -165.287 main 911 911 P________PP___ EP031972 15.7075 -165.350 HU 85 2 15.7075 -165.350 TC 85 15.7154 -165.369 4 10 280
1972219N15240 1972 68 EP CP CELESTE 1972-08-18 12:00:00 TS 15.7333 -165.817 85 hurdat_epa main 945 945 O________OO___ hurdat_epa EP031972 15.8000 -165.900 HU 85 2 15.8000 -165.900 TC 85 15.8000 -165.900 4 10 278
1972219N15240 1972 68 EP CP CELESTE 1972-08-18 15:00:00 TS 15.7866 -166.326 main 973 973 P________PP___ EP031972 15.8499 -166.415 HU 85 2 15.8499 -166.415 TC 85 15.8700 -166.430 4 10 276
1972219N15240 1972 68 EP CP CELESTE 1972-08-18 18:00:00 TS 15.8392 -166.807 85 hurdat_epa main 1011 1011 O________OP___ hurdat_epa EP031972 15.9000 -166.900 HU 85 2 15.9000 -166.900 TC 85 15.9352 -166.940 4 9 278
1972219N15240 1972 68 EP CP CELESTE 1972-08-18 21:00:00 TS 15.9200 -167.271 main 1042 1042 P________PP___ EP031972 15.9925 -167.387 HU 85 2 15.9925 -167.387 TC 85 16.0077 -167.405 4 8 282
1972219N15240 1972 68 EP CP CELESTE 1972-08-19 00:00:00 TS 16.0167 -167.667 85 hurdat_epa main 1067 1067 O________OO___ hurdat_epa EP031972 16.1000 -167.800 HU 85 2 16.1000 -167.800 TC 85 16.1000 -167.800 4 7 286
1972219N15240 1972 68 EP CP CELESTE 1972-08-19 03:00:00 TS 16.1053 -167.960 main 1085 1085 P________PP___ EP031972 16.1849 -168.088 HU 85 2 16.1849 -168.088 TC 85 16.2075 -168.093 4 5 293
1972219N15240 1972 68 EP CP CELESTE 1972-08-19 06:00:00 TS 16.2232 -168.186 85 hurdat_epa main 1094 1088 O________OP___ hurdat_epa EP031972 16.3000 -168.300 HU 85 2 16.3000 -168.300 TC 85 16.3392 -168.318 4 5 304
1972219N15240 1972 68 EP CP CELESTE 1972-08-19 09:00:00 TS 16.3898 -168.394 main 1098 1098 P________PP___ EP031972 16.4774 -168.500 HU 85 2 16.4774 -168.500 TC 85 16.5014 -168.509 4 5 313
1972219N15240 1972 68 EP CP CELESTE 1972-08-19 12:00:00 TS 16.6000 -168.600 85 hurdat_epa main 1103 1103 O________OO___ hurdat_epa EP031972 16.7000 -168.700 HU 85 2 16.7000 -168.700 TC 85 16.7000 -168.700 4 6 316
1972219N15240 1972 68 EP CP CELESTE 1972-08-19 15:00:00 TS 16.8331 -168.843 main 1108 1108 P________PP___ EP031972 16.9350 -168.943 HU 82 1 16.9350 -168.943 TC 82 16.9309 -168.947 4 7 316
1972219N15240 1972 68 EP CP CELESTE 1972-08-19 18:00:00 TS 17.0996 -169.100 80 hurdat_epa main 1117 1115 O________OP___ hurdat_epa EP031972 17.2000 -169.200 HU 80 1 17.2000 -169.200 TC 80 17.1975 -169.200 4 7 318
1972219N15240 1972 68 EP CP CELESTE 1972-08-19 21:00:00 TS 17.3859 -169.361 main 1128 1123 P________PP___ EP031972 17.4850 -169.450 HU 80 1 17.4850 -169.450 TC 80 17.4903 -169.453 4 8 321
1972219N15240 1972 68 EP CP CELESTE 1972-08-20 00:00:00 TS 17.7000 -169.617 80 hurdat_epa main 1131 1131 O________OO___ hurdat_epa EP031972 17.8000 -169.700 HU 80 1 17.8000 -169.700 TC 80 17.8000 -169.700 4 8 324
1972219N15240 1972 68 EP CP CELESTE 1972-08-20 03:00:00 TS 18.0428 -169.855 main 1145 1136 P________PP___ EP031972 18.1500 -169.957 HU 80 1 18.1500 -169.957 TC 80 18.1145 -169.920 4 8 328
1972219N15240 1972 68 EP CP CELESTE 1972-08-20 06:00:00 TS 18.3904 -170.073 80 hurdat_epa main 1147 1143 O________OP___ hurdat_epa EP031972 18.5000 -170.200 HU 80 1 18.5000 -170.200 TC 80 18.4422 -170.136 4 8 330
1972219N15240 1972 68 EP CP CELESTE 1972-08-20 09:00:00 TS 18.7114 -170.255 main 1154 1147 P________PP___ EP031972 18.8074 -170.393 HU 80 1 18.8074 -170.393 TC 80 18.7738 -170.358 4 7 330
1972219N15240 1972 68 EP CP CELESTE 1972-08-20 12:00:00 TS 19.0167 -170.450 80 hurdat_epa main 1153 1159 O________OO___ hurdat_epa EP031972 19.1000 -170.600 HU 80 1 19.1000 -170.600 TC 80 19.1000 -170.600 4 7 324
1972219N15240 1972 68 EP CP CELESTE 1972-08-20 15:00:00 TS 19.3140 -170.713 main 1173 1173 P________PP___ EP031972 19.4000 -170.885 HU 80 1 19.4000 -170.885 TC 80 19.4114 -170.895 4 8 318
1972219N15240 1972 68 EP CP CELESTE 1972-08-20 18:00:00 TS 19.6025 -171.001 80 hurdat_epa main 1194 1194 O________OP___ hurdat_epa EP031972 19.7000 -171.200 HU 80 1 19.7000 -171.200 TC 80 19.7153 -171.207 4 8 317
1972219N15240 1972 68 EP CP CELESTE 1972-08-20 21:00:00 TS 19.8840 -171.283 main 1216 1216 P________PP___ EP031972 20.0000 -171.508 HU 80 1 20.0000 -171.508 TC 80 20.0114 -171.516 4 8 318
1972219N15240 1972 68 EP CP CELESTE 1972-08-21 00:00:00 TS 20.1667 -171.550 80 hurdat_epa main 1239 1237 O________OO___ hurdat_epa EP031972 20.3000 -171.800 HU 80 1 20.3000 -171.800 TC 80 20.3000 -171.800 4 8 321
1972219N15240 1972 68 EP CP CELESTE 1972-08-21 03:00:00 TS 20.4702 -171.795 main 1254 1254 P________PP___ EP031972 20.6075 -172.073 HU 80 1 20.6075 -172.073 TC 80 20.6064 -172.045 4 7 324
1972219N15240 1972 68 EP CP CELESTE 1972-08-21 06:00:00 TS 20.7671 -172.010 80 hurdat_epa main 1269 1269 O________OP___ hurdat_epa EP031972 20.9000 -172.300 HU 80 1 20.9000 -172.300 TC 80 20.9023 -172.260 4 7 327
1972219N15240 1972 68 EP CP CELESTE 1972-08-21 09:00:00 TS 21.0449 -172.191 main 1287 1285 P________PP___ EP031972 21.1725 -172.473 HU 57 0 21.1725 -172.473 TC 57 21.1721 -172.445 4 6 329
1972219N15240 1972 68 EP CP CELESTE 1972-08-21 12:00:00 TS 21.2833 -172.350 35 hurdat_epa main 1293 1293 O________OO___ hurdat_epa EP031972 21.4000 -172.600 TS 35 0 21.4000 -172.600 TC 35 21.4000 -172.600 2 5 326
1972219N15240 1972 68 EP CP CELESTE 1972-08-21 15:00:00 TS 21.4730 -172.504 main 1312 1312 P________PP___ EP031972 21.5725 -172.708 TS 35 0 21.5725 -172.708 TC 35 21.5754 -172.726 2 4 322
1972219N15240 1972 68 EP CP CELESTE 1972-08-21 18:00:00 TS 21.5959 -172.615 35 hurdat_epa main 1321 1321 O________OP___ hurdat_epa EP031972 21.7000 -172.800 TS 35 0 21.7000 -172.800 TC 35 21.7075 -172.830 2 3 312
1972219N15240 1972 68 EP CP CELESTE 1972-08-21 21:00:00 TS 21.6780 -172.746 main 1331 1331 P________PP___ EP031972 21.8224 -172.878 TS 35 0 21.8050 -172.897 TC 35 21.8110 -172.919 2 3 298
1972219N15240 1972 68 EP CP CELESTE 1972-08-22 00:00:00 TS 21.7500 -172.925 35 hurdat_epa main 1350 1351 O________OO___ hurdat_epa EP031972 21.9000 -173.000 TS 35 0 21.9000 -173.000 TC 35 21.9000 -173.000 2 4 271
1972219N15240 1972 68 EP CP CELESTE 1972-08-22 03:00:00 NR 21.6850 -173.172 main 1382 1382 P_____________ EP031972 21.9177 -173.220 TS 35 0 TC 2 6 286
1972219N15240 1972 68 EP CP CELESTE 1972-08-22 06:00:00 NR 21.9000 -173.500 35 cphc main 1412 O_____________ cphc 21.9000 -173.500 35 2 7 305

About IBTrACS Database

This database is a web-friendly format of International Best Track Archive for Climate Stewardship (IBTrACS), a global best track data archive curated by NOAA dating back to 1842.

Updated: 2021-11-26